Date,TemperatureHighF,TemperatureAvgF,TemperatureLowF,DewpointHighF,DewpointAvgF,DewpointLowF,HumidityHigh,HumidityAvg,HumidityLow,PressureMaxIn,PressureMinIn,WindSpeedMaxMPH,WindSpeedAvgMPH,GustSpeedMaxMPH,PrecipitationSumIn
2013-1-1,23,19,17,19,15,13,92,84,71,30.20,29.06,5,1,9,0.00
2013-1-2,24,22,18,22,18,14,91,88,84,29.14,29.04,6,2,8,0.00
2013-1-3,28,26,24,25,22,22,92,88,82,29.09,28.98,6,3,11,0.00
2013-1-4,27,25,22,24,22,20,96,89,85,30.13,28.91,8,4,18,0.00
2013-1-5,36,28,14,33,26,12,97,90,83,30.21,29.88,8,3,15,0.00
2013-1-6,33,30,26,32,27,21,96,88,79,30.27,29.82,10,2,15,0.00
2013-1-7,40,32,21,31,26,18,89,78,60,30.27,29.95,13,6,23,0.01
2013-1-8,41,35,30,34,30,28,93,83,73,30.14,29.97,9,4,18,0.12
2013-1-9,39,37,29,34,30,26,89,77,72,30.42,29.83,12,5,19,0.03
2013-1-10,43,32,21,31,26,20,97,80,53,30.53,30.08,11,3,14,0.00
2013-1-11,46,40,35,45,39,31,99,96,82,30.08,29.64,11,6,19,0.27
2013-1-12,52,44,32,46,39,29,98,84,59,29.93,29.61,11,6,22,0.01
2013-1-13,32,28,22,30,26,19,95,92,87,30.04,29.82,5,1,22,0.03
2013-1-14,25,20,18,19,16,15,91,84,68,30.40,30.04,5,2,22,0.00
2013-1-15,28,22,10,20,16,8,92,80,70,30.41,30.10,7,3,22,0.00
2013-1-16,30,26,22,28,23,18,96,88,76,30.08,29.68,10,4,18,0.00
2013-1-17,25,17,11,19,12,4,91,80,60,30.37,30.00,7,4,18,0.00
2013-1-18,38,21,7,34,17,3,88,84,69,30.41,29.77,12,4,18,0.00
2013-1-19,39,37,25,37,33,23,95,87,67,29.83,29.45,13,4,15,0.11
2013-1-20,25,14,11,22,10,7,93,86,73,30.18,29.53,13,4,20,0.00
2013-1-21,11,6,-2,8,3,-5,89,87,83,30.17,30.01,5,2,20,0.00
2013-1-22,6,2,-2,3,-1,-5,89,88,86,30.31,30.16,4,0,7,0.00
2013-1-23,13,9,4,11,7,2,92,90,86,30.30,30.09,4,1,7,0.00
2013-1-24,20,9,4,17,7,2,93,90,85,30.68,30.25,5,1,7,0.00
2013-1-25,20,14,9,17,11,5,89,85,77,30.50,29.98,9,5,14,0.00
2013-1-26,31,23,15,23,19,14,95,85,64,30.42,30.20,2,0,3,0.03
2013-1-27,31,26,19,26,22,18,96,86,68,30.43,30.03,12,5,12,0.00
2013-1-28,36,32,27,35,31,26,97,96,93,30.04,29.82,12,2,12,0.09
2013-1-29,52,40,32,51,40,31,99,97,94,29.98,29.45,11,5,14,0.84
2013-1-30,36,31,22,36,30,20,98,97,95,29.46,29.13,11,6,14,0.22
2013-1-31,22,16,14,21,15,12,96,93,90,29.91,29.29,6,3,9,0.00
2013-2-1,15,12,8,12,10,6,93,90,82,30.18,29.91,5,2,8,0.00
2013-2-2,18,10,7,13,8,4,91,88,79,30.15,30.05,5,1,8,0.00
2013-2-3,16,13,10,13,10,6,90,85,79,30.05,29.87,4,2,8,0.00
2013-2-4,20,11,-4,11,6,-7,91,80,59,30.03,29.95,3,0,6,0.00
2013-2-5,23,12,-7,20,9,-10,94,87,80,30.06,29.75,9,3,13,0.00
2013-2-6,29,19,0,24,14,-2,94,81,63,30.28,30.05,6,2,13,0.00
2013-2-7,30,27,23,28,26,22,97,94,90,30.21,30.04,11,4,13,0.00
2013-2-8,24,20,3,22,18,0,96,92,84,30.42,30.06,13,6,17,0.00
2013-2-9,32,13,-7,21,8,-10,93,80,61,30.45,30.23,8,2,13,0.00
2013-2-10,39,27,13,37,24,11,95,87,71,30.23,29.50,14,6,23,0.14
2013-2-11,42,35,28,41,33,24,97,94,83,29.81,29.38,11,6,21,0.20
2013-2-12,28,26,24,25,22,20,89,85,78,29.99,29.81,5,2,21,0.00
2013-2-13,38,32,25,31,28,22,94,86,74,29.87,29.68,6,3,21,0.11
2013-2-14,34,31,22,33,29,20,97,95,91,29.90,29.57,12,3,21,0.00
2013-2-15,22,20,16,20,17,14,94,89,77,30.16,29.90,5,2,9,0.00
2013-2-16,23,14,5,19,10,2,93,85,62,30.18,30.08,9,2,11,0.00
2013-2-17,22,11,-1,15,7,-3,91,83,68,30.24,30.13,5,1,11,0.00
2013-2-18,42,30,16,38,22,12,96,74,59,30.13,29.40,12,8,19,0.17
2013-2-19,41,25,13,40,24,11,98,95,92,29.92,29.23,9,6,18,0.14
2013-2-20,21,17,13,18,14,11,93,90,84,30.34,29.93,10,6,16,0.00
2013-2-21,21,18,14,18,15,11,91,86,76,30.45,30.31,13,5,17,0.00
2013-2-22,27,24,17,25,22,12,95,91,78,30.32,29.82,11,6,16,0.00
2013-2-23,32,29,26,29,27,24,96,92,85,29.86,29.77,6,2,14,0.00
2013-2-24,37,30,26,28,26,24,97,87,60,30.16,29.84,5,1,14,0.12
2013-2-25,37,27,12,28,24,10,96,86,68,30.22,30.13,8,1,14,0.02
2013-2-26,36,30,24,28,25,20,92,81,67,30.18,29.73,16,8,20,0.01
2013-2-27,34,32,31,32,31,28,98,94,86,29.73,29.62,13,10,16,0.04
2013-2-28,32,30,25,31,26,18,98,88,74,30.10,29.71,14,11,19,0.00
2013-3-1,25,21,18,19,16,13,86,81,75,30.25,30.10,13,8,17,0.00
2013-3-2,25,18,4,19,14,1,94,84,77,30.23,30.16,9,4,12,0.00
2013-3-3,24,18,8,18,14,5,95,85,74,30.16,30.09,7,2,9,0.00
2013-3-4,27,20,9,21,15,6,93,80,67,30.20,30.15,7,2,8,0.00
2013-3-5,36,22,6,25,16,3,91,79,59,30.20,29.99,10,4,13,0.00
2013-3-6,39,31,26,30,28,23,95,86,70,30.30,30.09,10,5,13,0.00
2013-3-7,28,26,21,25,21,17,92,82,72,30.47,30.29,9,3,10,0.00
2013-3-8,45,25,6,27,18,4,94,78,41,30.55,30.40,6,1,7,0.00
2013-3-9,43,33,20,34,25,18,94,76,49,30.40,29.95,11,4,15,0.24
2013-3-10,43,38,35,42,37,34,99,94,88,29.94,29.77,11,4,16,0.77
2013-3-11,47,40,31,46,39,30,99,98,95,29.76,29.42,7,3,11,0.30
2013-3-12,31,28,22,30,25,20,97,90,80,29.89,29.57,7,2,9,0.02
2013-3-13,29,23,19,21,18,13,95,79,56,30.25,29.89,9,4,17,0.00
2013-3-14,38,25,10,23,16,8,94,73,48,30.28,30.04,5,1,8,0.05
2013-3-15,33,32,30,31,29,23,95,89,77,30.04,29.90,10,3,14,0.00
2013-3-16,25,20,13,19,16,10,94,83,69,30.08,29.93,7,3,11,0.00
2013-3-17,25,21,17,19,12,8,91,69,55,30.35,30.07,10,4,14,0.00
2013-3-18,38,26,16,28,19,9,95,77,45,30.22,29.52,13,6,14,0.01
2013-3-19,30,24,20,29,22,18,95,91,77,29.89,29.50,7,4,14,0.00
2013-3-20,25,21,18,21,16,10,93,79,55,29.95,29.88,6,2,12,0.00
2013-3-21,28,24,20,25,22,18,95,89,77,30.00,29.88,8,4,12,0.00
2013-3-22,32,27,20,26,23,17,89,83,77,30.08,29.98,5,2,12,0.03
2013-3-23,35,30,25,27,25,22,89,81,70,30.15,30.07,6,2,8,0.04
2013-3-24,34,30,28,28,25,20,93,80,64,30.12,29.84,13,6,16,0.00
2013-3-25,35,32,29,29,26,22,85,80,71,30.04,29.82,13,9,19,0.00
2013-3-26,39,34,30,33,29,24,94,82,59,30.18,30.04,8,4,10,0.00
2013-3-27,41,34,26,30,26,22,93,75,57,30.26,30.17,8,3,13,0.00
2013-3-28,45,34,22,27,24,20,95,70,44,30.31,30.25,5,1,8,0.00
2013-3-29,44,32,19,30,21,17,95,68,41,30.32,30.24,6,1,8,0.00
2013-3-30,50,37,18,39,23,16,93,63,28,30.25,29.82,9,3,14,0.08
2013-3-31,42,38,28,40,35,19,98,91,66,29.82,29.60,10,4,15,0.22
2013-4-1,30,26,22,22,17,10,91,69,53,30.13,29.80,9,5,14,0.00
2013-4-2,33,25,15,21,15,11,95,70,43,30.30,30.10,8,2,12,0.00
2013-4-3,39,28,17,20,17,14,91,66,44,30.47,30.30,8,2,12,0.00
2013-4-4,49,36,26,37,24,7,98,62,36,30.31,29.95,9,4,14,0.04
2013-4-5,36,32,27,31,22,18,83,67,51,30.25,30.04,11,4,13,0.00
2013-4-6,49,36,29,36,27,18,88,69,59,30.23,29.57,17,6,19,0.01
2013-4-7,50,39,31,46,35,27,97,85,61,30.04,29.44,10,4,17,0.39
2013-4-8,41,36,29,39,33,27,98,90,78,30.02,29.75,10,4,13,0.36
2013-4-9,41,37,33,40,36,32,98,97,94,30.11,30.00,14,6,22,0.33
2013-4-10,38,34,32,36,33,31,99,95,84,30.14,30.03,12,7,22,0.95
2013-4-11,36,34,30,33,28,24,96,82,66,30.08,29.74,16,8,23,0.01
2013-4-12,37,33,31,35,31,28,97,94,91,29.74,29.59,6,2,22,0.10
2013-4-13,36,33,31,34,30,25,97,87,66,29.93,29.71,6,2,22,0.28
2013-4-14,43,36,24,34,29,23,98,77,52,30.08,29.87,12,4,22,0.04
2013-4-15,55,46,38,52,43,33,98,89,79,29.88,29.73,12,5,22,0.25
2013-4-16,47,40,32,42,33,30,98,76,55,30.32,29.88,7,2,22,0.00
2013-4-17,49,39,28,39,33,27,96,82,52,30.39,30.04,12,4,22,0.17
2013-4-18,55,44,38,55,43,36,99,97,95,30.04,29.33,8,3,14,0.82
2013-4-19,57,38,28,56,32,17,99,77,54,29.70,29.23,12,8,26,0.00
2013-4-20,34,28,24,22,19,15,94,71,46,30.46,29.71,8,4,14,0.00
2013-4-21,48,36,20,29,20,14,89,57,29,30.61,30.36,10,4,13,0.00
2013-4-22,66,49,38,36,32,28,80,54,28,30.36,30.10,10,6,13,0.00
2013-4-23,59,45,32,47,37,31,97,76,58,30.10,29.84,9,4,12,0.40
2013-4-24,47,37,32,32,28,22,96,73,38,30.01,29.90,8,4,12,0.09
2013-4-25,48,40,35,36,30,26,93,69,45,30.28,29.92,8,4,13,0.05
2013-4-26,64,48,32,43,34,28,88,61,34,30.34,30.15,14,6,19,0.00
2013-4-27,70,59,48,50,44,35,90,61,35,30.23,30.05,7,3,11,0.07
2013-4-28,71,56,41,49,42,37,93,63,37,30.05,29.79,10,2,11,0.00
2013-4-29,67,57,48,57,52,46,98,85,61,29.85,29.79,5,1,6,0.02
2013-4-30,77,65,56,61,57,52,95,77,53,29.87,29.75,17,8,22,0.34
2013-5-1,80,67,46,61,56,37,85,67,49,30.23,29.85,14,7,21,0.00
2013-5-2,64,46,39,48,39,35,90,78,56,30.27,30.16,13,8,16,0.00
2013-5-3,62,48,37,51,42,35,95,80,61,30.22,30.03,9,5,12,0.05
2013-5-4,79,60,43,49,44,37,93,60,29,30.09,30.01,12,4,20,0.00
2013-5-5,77,60,47,47,40,36,75,50,28,30.09,30.01,11,3,15,0.00
2013-5-6,75,58,43,47,41,36,93,57,26,30.08,29.98,13,3,19,0.00
2013-5-7,77,60,43,48,40,31,88,53,24,30.06,29.97,11,3,19,0.00
2013-5-8,77,63,47,52,44,39,85,54,26,30.01,29.94,10,2,19,0.00
2013-5-9,74,56,45,49,44,40,92,68,34,30.00,29.91,11,4,19,0.00
2013-5-10,45,42,39,44,40,38,98,95,91,29.98,29.91,14,8,17,0.64
2013-5-11,47,40,34,45,38,33,99,91,70,29.95,29.71,10,3,16,0.16
2013-5-12,38,35,29,34,30,26,96,81,65,30.10,29.83,11,6,23,0.11
2013-5-13,51,40,26,33,26,20,95,60,31,30.18,30.03,6,2,19,0.00
2013-5-14,70,56,40,49,40,23,82,56,42,30.04,29.57,10,5,14,0.01
2013-5-15,73,64,54,53,47,40,78,57,30,29.76,29.44,10,4,17,0.00
2013-5-16,64,56,46,49,42,38,88,61,40,30.05,29.75,11,4,15,0.00
2013-5-17,62,52,42,50,44,38,92,76,56,30.17,30.05,7,3,11,0.01
2013-5-18,75,60,51,49,46,44,86,65,36,30.16,29.99,11,4,15,0.03
2013-5-19,83,75,63,64,62,59,86,63,46,29.91,29.78,9,3,16,0.00
2013-5-20,85,71,60,70,62,57,94,76,47,29.83,29.66,12,4,17,0.02
2013-5-21,81,66,57,66,61,57,98,85,51,29.71,29.59,10,3,15,0.28
2013-5-22,63,58,53,62,57,52,99,98,93,29.71,29.61,8,2,15,0.60
2013-5-23,53,45,39,52,42,34,99,89,65,30.25,29.70,15,9,25,0.06
2013-5-24,53,44,36,39,35,31,93,74,46,30.41,30.25,11,4,25,0.00
2013-5-25,61,48,32,43,37,31,98,69,41,30.45,30.31,10,3,12,0.00
2013-5-26,66,52,34,42,37,33,96,63,32,30.37,30.21,7,2,10,0.00
2013-5-27,72,58,42,46,39,33,85,53,26,30.24,29.95,10,4,14,0.00
2013-5-28,62,58,54,62,54,43,98,88,57,29.95,29.71,7,3,12,0.25
2013-5-29,79,64,53,67,60,53,99,88,61,29.91,29.72,5,2,8,0.00
2013-5-30,87,77,66,70,66,61,89,70,47,29.89,29.78,12,6,19,0.01
2013-5-31,81,73,67,68,65,62,95,77,55,29.83,29.70,9,5,15,0.10
2013-6-1,76,69,61,68,64,57,96,84,64,29.71,29.59,8,4,14,0.33
2013-6-2,61,48,37,58,44,36,96,88,72,30.03,29.56,8,4,17,0.07
2013-6-3,64,49,33,46,39,32,98,72,42,30.13,30.01,9,2,13,0.01
2013-6-4,63,51,37,50,42,36,97,75,38,30.20,30.13,5,2,8,0.06
2013-6-5,60,53,48,53,50,43,96,87,63,30.19,30.05,6,2,8,0.11
2013-6-6,68,58,50,52,47,44,83,66,50,30.06,29.91,7,4,9,0.00
2013-6-7,71,60,48,50,45,37,94,61,34,29.96,29.87,10,3,13,0.00
2013-6-8,71,58,44,56,48,42,96,72,37,30.04,29.90,7,2,8,0.00
2013-6-9,79,64,47,59,54,44,96,72,48,30.08,29.92,10,4,14,0.00
2013-6-10,74,65,59,64,58,52,96,78,64,29.92,29.75,9,4,13,0.00
2013-6-11,80,67,58,67,61,56,99,82,55,29.87,29.76,5,2,10,0.00
2013-6-12,78,66,55,64,57,47,98,75,37,29.88,29.69,7,3,9,0.00
2013-6-13,65,60,54,57,53,50,89,77,62,30.01,29.69,11,5,15,0.00
2013-6-14,72,60,49,52,46,36,90,63,28,30.11,30.00,7,3,10,0.00
2013-6-15,73,62,43,63,53,40,90,73,50,30.03,29.80,6,1,8,0.00
2013-6-16,80,68,60,66,60,53,99,77,46,29.82,29.70,6,2,12,0.75
2013-6-17,70,63,56,62,57,53,95,82,67,29.97,29.81,10,4,12,0.08
2013-6-18,68,60,52,54,50,42,96,70,44,30.09,29.96,10,6,13,0.00
2013-6-19,76,61,43,51,47,42,97,64,36,30.17,30.07,6,2,8,0.00
2013-6-20,83,68,49,59,52,44,93,62,35,30.15,30.07,5,1,10,0.00
2013-6-21,84,72,58,68,62,55,89,71,52,30.12,29.88,14,4,20,0.00
2013-6-22,84,69,62,70,64,60,96,83,62,30.04,29.90,7,2,10,0.00
2013-6-23,88,75,64,73,68,61,96,79,59,29.98,29.81,9,4,13,0.00
2013-6-24,84,76,69,71,68,64,91,77,61,29.93,29.81,7,3,9,0.00
2013-6-25,81,73,66,68,66,64,93,80,61,29.83,29.77,6,2,10,0.00
2013-6-26,90,74,60,71,65,59,98,77,45,29.79,29.70,5,1,11,0.00
2013-6-27,82,72,64,69,65,60,96,81,59,29.74,29.63,7,2,8,0.00
2013-6-28,77,68,59,65,62,57,96,81,62,29.62,29.52,9,3,14,0.00
2013-6-29,72,66,61,63,60,56,97,81,58,29.78,29.57,11,6,15,0.06
2013-6-30,76,67,57,57,52,41,91,61,31,30.00,29.78,13,5,18,0.00
2013-7-1,80,69,52,58,53,44,91,59,35,30.11,30.00,10,5,15,0.00
2013-7-2,72,63,46,54,48,41,90,60,44,30.12,30.05,8,3,12,0.00
2013-7-3,80,68,56,65,58,53,96,73,54,30.08,29.98,8,2,10,0.25
2013-7-4,78,68,61,66,62,58,97,82,56,30.06,29.99,6,2,9,0.00
2013-7-5,87,75,62,68,62,58,93,67,41,30.04,29.95,5,2,11,0.00
2013-7-6,88,76,66,67,62,57,86,64,41,30.01,29.91,5,2,10,0.00
2013-7-7,88,76,66,70,66,63,93,72,47,29.95,29.86,6,2,12,0.25
2013-7-8,78,71,67,73,68,66,98,93,80,29.94,29.86,7,2,12,1.29
2013-7-9,86,73,67,73,69,66,99,88,62,29.96,29.70,7,1,12,0.21
2013-7-10,73,69,60,71,63,56,98,82,58,29.93,29.69,8,3,12,0.07
2013-7-11,72,65,56,61,57,51,98,78,48,30.07,29.93,9,3,12,0.01
2013-7-12,86,68,52,65,56,46,98,70,26,30.16,30.06,5,1,12,0.00
2013-7-13,86,72,58,65,61,57,98,71,41,30.17,30.08,6,2,12,0.00
2013-7-14,90,75,60,69,63,58,95,70,38,30.21,30.16,7,1,12,0.00
2013-7-15,89,78,64,72,67,63,96,72,45,30.25,30.18,6,2,12,0.00
2013-7-16,93,81,66,75,70,64,95,72,53,30.24,30.15,5,2,12,0.00
2013-7-17,92,83,74,76,73,70,93,74,49,30.19,30.07,5,2,13,0.00
2013-7-18,94,84,73,76,72,69,95,70,45,30.08,29.78,7,3,13,0.00
2013-7-19,90,82,71,73,71,64,83,70,51,29.78,29.61,7,5,17,0.10
2013-7-20,73,67,56,66,56,45,98,71,41,29.97,29.70,10,4,13,0.01
2013-7-21,76,62,47,58,51,46,96,69,37,30.02,29.91,7,2,12,0.00
2013-7-22,87,75,60,67,62,55,92,67,48,29.91,29.63,8,3,12,0.00
2013-7-23,75,64,56,67,56,47,98,78,64,29.92,29.59,11,6,17,0.82
2013-7-24,70,61,50,53,50,47,92,68,50,30.06,29.92,6,2,12,0.00
2013-7-25,80,65,48,57,52,45,97,66,41,30.06,29.96,6,2,12,0.00
2013-7-26,78,65,57,66,59,42,96,80,42,29.98,29.80,12,4,22,0.55
2013-7-27,62,57,54,61,55,50,97,92,84,29.83,29.78,6,2,12,0.04
2013-7-28,64,56,49,55,52,48,98,87,64,29.88,29.74,5,1,12,0.14
2013-7-29,68,60,54,58,55,53,98,86,62,30.16,29.88,6,2,9,0.05
2013-7-30,76,63,50,61,56,49,99,81,55,30.20,30.08,5,1,5,0.01
2013-7-31,77,68,60,64,62,58,96,83,61,30.08,29.85,5,2,9,0.00
2013-8-1,74,66,58,62,58,53,98,78,51,29.87,29.83,6,2,12,0.01
2013-8-2,74,66,58,65,59,55,95,81,55,29.90,29.77,5,2,13,0.58
2013-8-3,71,63,52,60,56,52,99,80,57,30.08,29.90,8,3,11,0.00
2013-8-4,69,60,50,57,51,46,98,74,48,30.18,30.08,7,2,11,0.00
2013-8-5,72,59,46,60,52,45,98,78,43,30.10,29.88,4,1,11,0.03
2013-8-6,78,69,61,68,63,56,92,81,66,29.88,29.76,6,3,12,0.00
2013-8-7,74,68,60,68,63,53,96,85,70,29.95,29.63,9,3,12,0.30
2013-8-8,74,63,48,57,53,47,97,73,45,30.03,29.96,5,2,9,0.00
2013-8-9,76,64,50,61,55,49,97,75,52,30.01,29.89,6,2,12,0.00
2013-8-10,74,63,49,57,53,48,97,72,45,30.12,30.01,6,2,8,0.00
2013-8-11,75,63,51,62,56,50,99,80,51,30.10,30.00,4,1,8,0.00
2013-8-12,79,64,52,64,58,51,99,84,54,30.03,29.84,12,2,16,0.12
2013-8-13,63,57,52,53,48,46,90,73,55,30.10,29.94,11,7,16,0.00
2013-8-14,68,57,44,54,48,44,98,75,48,30.18,30.10,8,2,9,0.00
2013-8-15,75,62,48,57,51,45,92,70,40,30.11,30.04,6,2,12,0.00
2013-8-16,80,65,48,61,53,47,97,69,36,30.17,30.09,8,1,11,0.00
2013-8-17,84,67,50,60,53,48,98,66,31,30.23,30.15,5,1,8,0.00
2013-8-18,84,67,50,57,53,48,95,66,30,30.19,30.06,5,1,9,0.00
2013-8-19,82,68,52,64,58,51,98,72,43,30.07,29.97,6,2,11,0.00
2013-8-20,86,75,65,66,63,60,90,69,47,30.03,29.97,6,3,11,0.00
2013-8-21,90,78,67,69,66,62,91,67,48,29.98,29.84,8,4,16,0.25
2013-8-22,78,69,57,69,61,51,98,77,42,30.09,29.87,7,2,9,0.06
2013-8-23,78,64,49,62,56,49,98,78,49,30.18,30.09,8,2,10,0.00
2013-8-24,84,69,55,60,56,53,94,67,38,30.25,30.17,4,2,10,0.00
2013-8-25,90,76,60,70,63,56,86,65,49,30.17,29.98,8,5,14,0.00
2013-8-26,88,77,69,72,68,65,94,75,48,30.03,29.90,9,3,11,0.05
2013-8-27,72,70,67,71,69,65,99,96,93,29.94,29.79,10,2,12,2.66
2013-8-28,83,73,66,73,70,65,99,90,64,30.01,29.80,8,3,10,0.00
2013-8-29,89,74,62,73,68,61,99,82,50,30.05,29.92,4,1,7,0.01
2013-8-30,77,72,69,73,68,64,93,86,73,29.94,29.73,9,3,11,0.07
2013-8-31,79,70,63,66,64,61,97,82,62,29.84,29.76,7,3,9,0.00
2013-9-1,82,69,59,68,64,59,99,85,56,29.82,29.64,8,2,11,0.00
2013-9-2,64,58,55,60,54,51,94,87,77,29.94,29.76,8,5,13,0.03
2013-9-3,71,62,53,57,53,51,95,73,53,30.01,29.93,6,2,10,0.00
2013-9-4,68,61,51,62,57,48,96,86,62,30.13,29.93,7,2,10,0.01
2013-9-5,65,55,44,49,46,41,96,71,46,30.30,30.14,7,3,10,0.00
2013-9-6,78,62,43,62,52,42,97,72,50,30.23,29.95,5,2,11,0.00
2013-9-7,77,72,67,72,66,57,95,84,66,29.96,29.82,10,3,14,0.20
2013-9-8,73,65,57,64,55,48,93,73,42,30.11,29.96,8,4,12,0.00
2013-9-9,78,66,58,72,60,49,94,83,70,30.01,29.71,7,4,11,0.07
2013-9-10,88,81,71,74,71,66,85,72,56,29.91,29.71,6,3,13,0.00
2013-9-11,77,69,64,68,66,63,98,89,69,29.94,29.86,4,2,7,0.54
2013-9-12,69,61,50,67,56,47,99,84,68,30.05,29.87,12,5,17,0.03
2013-9-13,57,50,40,48,44,38,95,80,63,30.16,30.04,10,5,17,0.00
2013-9-14,67,52,36,52,45,36,98,79,49,30.17,30.00,5,2,10,0.00
2013-9-15,59,57,50,57,53,47,95,88,78,30.18,29.97,9,2,12,0.40
2013-9-16,57,50,41,46,43,40,96,78,62,30.40,30.18,7,4,11,0.00
2013-9-17,68,52,38,48,43,37,98,76,36,30.40,30.17,6,2,7,0.01
2013-9-18,75,61,46,62,53,44,96,78,60,30.17,29.92,8,2,12,0.00
2013-9-19,79,70,63,71,66,58,97,87,73,29.95,29.71,10,4,18,1.05
2013-9-20,70,67,60,68,65,58,98,93,86,29.75,29.64,6,2,8,0.24
2013-9-21,60,55,50,58,50,42,95,83,70,29.91,29.66,10,4,12,0.01
2013-9-22,52,49,46,45,43,40,94,79,71,30.10,29.91,7,3,10,0.02
2013-9-23,64,49,35,48,42,34,97,79,50,30.19,30.10,6,2,8,0.00
2013-9-24,68,53,39,54,47,38,97,82,54,30.15,30.00,6,2,7,0.00
2013-9-25,70,54,40,54,47,39,99,81,33,30.03,29.98,5,1,9,0.01
2013-9-26,75,56,41,54,46,37,99,75,26,30.12,30.00,4,1,5,0.01
2013-9-27,79,61,44,56,50,43,98,73,38,30.20,30.11,7,2,10,0.00
2013-9-28,78,66,54,59,55,51,92,70,46,30.12,29.81,11,6,23,0.00
2013-9-29,73,59,45,61,51,44,98,78,51,30.00,29.81,9,2,13,0.20
2013-9-30,70,54,39,55,46,38,98,78,44,30.00,29.84,6,2,11,0.00
2013-10-1,77,65,54,65,59,49,93,80,59,29.87,29.72,10,5,19,0.00
2013-10-2,71,58,45,60,47,38,98,72,32,30.06,29.84,5,1,8,0.00
2013-10-3,75,61,50,66,55,42,99,82,63,30.05,29.87,8,2,12,0.53
2013-10-4,63,61,57,63,60,56,100,99,97,30.04,29.86,7,2,8,1.09
2013-10-5,65,60,56,62,59,56,99,95,87,30.04,29.80,11,5,14,2.47
2013-10-6,66,58,49,65,57,47,99,96,87,29.80,29.61,5,2,7,0.18
2013-10-7,59,50,43,50,47,42,98,88,68,30.07,29.57,6,2,9,0.36
2013-10-8,71,55,40,51,46,40,99,76,43,30.19,30.07,9,3,11,0.01
2013-10-9,73,61,48,55,50,47,97,70,46,30.23,30.15,6,3,8,0.00
2013-10-10,73,55,40,52,47,40,98,77,40,30.20,30.09,5,1,6,0.00
2013-10-11,72,56,42,54,46,42,99,73,38,30.13,30.02,6,2,8,0.01
2013-10-12,77,62,50,60,52,44,96,73,47,30.03,29.90,12,5,16,0.17
2013-10-13,56,51,44,53,47,42,95,85,70,30.38,30.03,4,1,7,0.01
2013-10-14,58,47,35,47,41,34,98,81,51,30.45,30.27,5,2,8,0.00
2013-10-15,60,50,39,58,48,38,97,91,74,30.27,29.70,9,3,13,0.27
2013-10-16,58,51,47,57,49,45,97,94,89,29.86,29.68,5,2,10,0.10
2013-10-17,50,45,36,46,44,35,98,94,79,29.87,29.74,2,0,2,0.07
2013-10-18,58,44,34,50,42,34,99,92,68,29.82,29.76,6,1,11,0.28
2013-10-19,52,45,39,45,40,33,98,83,53,29.81,29.68,5,1,7,0.37
2013-10-20,51,43,33,46,38,32,99,85,56,29.83,29.66,5,2,11,0.29
2013-10-21,48,43,34,48,39,26,97,84,68,29.80,29.65,5,3,12,0.06
2013-10-22,45,38,33,40,34,27,97,86,69,29.90,29.73,8,3,13,0.43
2013-10-23,43,34,31,37,33,30,98,94,65,29.90,29.85,7,1,10,0.31
2013-10-24,45,36,30,38,33,29,98,88,61,30.17,29.89,6,1,11,0.24
2013-10-25,44,39,32,39,33,29,98,82,60,30.26,29.81,10,3,14,0.05
2013-10-26,47,43,38,42,37,31,93,79,64,29.97,29.63,11,5,18,0.17
2013-10-27,49,42,36,37,34,31,89,76,57,29.97,29.86,7,2,11,0.00
2013-10-28,44,38,32,39,31,25,90,75,56,30.47,29.97,10,6,15,0.00
2013-10-29,42,34,24,34,28,21,91,78,56,30.49,30.23,6,2,9,0.00
2013-10-30,61,48,37,50,41,34,91,79,50,30.23,29.83,6,2,10,0.03
2013-10-31,62,56,52,60,55,50,99,96,92,29.82,29.14,6,2,8,0.58
2013-11-1,47,45,42,45,44,41,97,95,91,29.65,29.43,5,1,7,0.96
2013-11-2,42,40,36,41,36,30,96,88,76,30.15,29.65,8,4,11,0.04
2013-11-3,45,36,25,34,30,24,97,82,64,30.38,30.15,7,3,12,0.00
2013-11-4,50,42,34,36,32,28,88,69,48,30.39,30.15,13,8,19,0.00
2013-11-5,56,51,48,49,46,37,91,83,66,30.26,29.98,8,2,12,0.01
2013-11-6,55,46,36,54,45,34,98,94,83,29.99,29.62,9,5,16,1.20
2013-11-7,38,35,33,34,30,28,94,81,70,30.10,30.00,5,2,10,0.00
2013-11-8,42,36,32,32,30,26,95,79,57,30.24,30.05,6,1,8,0.03
2013-11-9,47,42,36,43,37,31,94,84,70,30.06,29.66,11,5,15,0.18
2013-11-10,42,39,35,36,33,30,92,79,65,30.22,29.85,10,4,16,0.06
2013-11-11,40,31,26,36,27,19,97,87,69,30.39,30.00,12,5,17,0.31
2013-11-12,28,26,21,25,20,17,95,77,63,30.58,30.39,9,4,13,0.00
2013-11-13,40,31,17,29,23,15,95,74,54,30.48,29.97,10,5,20,0.01
2013-11-14,45,40,36,36,32,27,83,71,64,29.99,29.84,7,4,17,0.00
2013-11-15,53,44,38,40,36,34,89,76,54,29.94,29.86,8,3,14,0.00
2013-11-16,54,47,39,52,44,36,95,89,84,29.95,29.52,14,7,21,0.12
2013-11-17,61,55,42,60,54,39,98,95,87,29.53,28.99,12,6,20,2.20
2013-11-18,42,36,31,38,29,23,96,77,67,30.15,29.32,9,6,19,0.01
2013-11-19,38,32,28,27,24,22,86,71,62,30.36,30.15,6,2,8,0.00
2013-11-20,45,37,32,30,26,23,75,66,44,30.34,30.18,10,6,13,0.00
2013-11-21,44,40,35,40,37,29,96,89,68,30.19,30.14,4,1,9,0.06
2013-11-22,40,32,26,39,30,22,97,93,79,30.39,30.17,9,4,11,0.08
2013-11-23,28,21,16,24,15,8,93,78,61,30.57,30.27,12,7,19,0.00
2013-11-24,24,19,16,17,13,10,91,77,68,30.59,30.18,10,4,17,0.00
2013-11-25,33,29,24,30,25,18,96,83,63,30.18,29.90,11,6,18,0.00
2013-11-26,33,29,19,31,27,17,96,93,88,30.08,29.93,9,3,12,0.00
2013-11-27,24,21,19,20,17,13,95,85,63,30.21,30.03,13,5,17,0.00
2013-11-28,24,19,13,22,17,12,94,91,87,30.45,30.20,7,2,9,0.00
2013-11-29,31,20,7,25,18,5,94,89,77,30.63,30.45,7,2,9,0.00
2013-11-30,39,33,22,35,29,19,93,85,79,30.47,30.01,8,4,11,0.09
2013-12-1,35,34,30,33,31,29,94,90,82,30.10,30.00,4,1,6,0.00
2013-12-2,39,31,24,30,27,22,96,85,62,30.00,29.87,2,0,4,0.00
2013-12-3,30,28,25,29,26,23,97,91,85,29.95,29.86,8,4,10,0.00
2013-12-4,49,36,30,48,36,30,99,98,97,29.88,29.43,10,5,13,0.27
2013-12-5,49,31,20,48,26,13,97,81,72,30.13,29.43,9,6,16,0.00
2013-12-6,19,18,17,15,14,12,90,82,75,30.41,30.12,5,2,10,0.00
2013-12-7,18,15,13,14,10,6,90,79,65,30.60,30.41,5,2,10,0.00
2013-12-8,19,15,8,16,11,5,93,82,69,30.58,30.03,6,2,8,0.00
2013-12-9,27,19,9,25,16,6,95,89,72,30.05,29.82,8,3,16,0.00
2013-12-10,16,12,8,14,9,6,92,90,87,30.14,29.82,6,3,9,0.00
2013-12-11,13,11,9,11,9,7,92,90,87,30.40,30.14,4,1,6,0.00
2013-12-12,19,13,7,15,10,4,91,87,78,30.40,30.12,3,1,7,0.00
2013-12-13,19,16,9,15,10,1,90,79,68,30.40,30.12,8,3,11,0.00
2013-12-14,18,14,8,16,10,1,93,88,71,30.40,29.93,10,4,16,0.00
2013-12-15,20,17,15,19,15,12,95,92,87,30.00,29.78,6,1,11,0.01
2013-12-16,20,14,9,14,11,6,92,85,71,30.17,29.96,8,3,10,0.00
2013-12-17,27,21,16,23,19,13,95,91,83,29.96,29.81,6,2,8,0.00
2013-12-18,25,23,21,22,19,17,95,84,78,30.05,29.75,7,2,8,0.00
2013-12-19,30,25,17,27,22,16,97,91,85,30.09,29.74,8,3,9,0.00
2013-12-20,24,22,21,23,21,19,95,94,91,30.00,29.87,10,7,17,0.00
2013-12-21,28,26,25,26,24,22,97,94,91,29.95,29.85,8,4,10,0.00
2013-12-22,25,22,17,23,20,16,96,94,91,30.05,29.74,13,7,18,0.00
2013-12-23,20,16,12,17,14,10,95,91,85,30.35,30.06,4,1,6,0.00
2013-12-24,18,12,7,11,8,4,92,85,68,30.51,30.34,5,1,7,0.00
2013-12-25,23,19,13,21,16,10,94,90,83,30.42,30.04,12,4,16,0.00
2013-12-26,24,21,19,20,18,15,95,89,74,30.22,30.00,2,0,5,0.00
2013-12-27,36,25,14,32,22,12,94,90,82,30.26,29.92,10,3,20,0.00
2013-12-28,45,37,33,37,32,-100,90,83,73,30.00,29.73,8,-3,17,0.18
2013-12-29,40,22,11,34,16,-100,95,86,78,30.07,29.68,13,-25,19,0.00
2013-12-30,14,11,9,8,5,-100,91,83,74,30.27,30.08,5,-16,12,0.00
2013-12-31,10,8,7,7,0,-100,90,81,78,30.37,30.07,6,-41,18,0.00
2014-1-1,13,8,5,6,-2,-100,88,75,67,30.47,30.36,5,-45,11,0.00
2014-1-2,10,6,2,7,-6,-100,88,71,64,30.41,30.31,9,-68,15,0.00